H. Lee White — WZD2465 — position and weather

sailwx.info

Track history (hours):
 
Tides and Currents Weather Stations Pressure Air Temp Water Temp Dewpoint Dewpoint Depression Visibility Wind Speed Wind Dir Waves Ship Positions

H. Lee White

Owner: AMERICAN STEAMSHIP COMPANY, WILLIAMSVILLE, NY. More information available from US FCC via Universal Licensing System and Coast Guard Vessel Documentation Center.

Last reported at 2014-Nov-23 08:04 UTC. Time now 2014-Nov-23 11:11 UTC.
Position N 45°01' W 086°47'.

Length 214 m; draft 6.4 m.

Type: Cargo ship. MMSI: 366938770.

Date/timePositionNaut miles runAvg speedWind from/ knotsBaromVisibWave heightAir tempDewpointWater temp
2014-Nov-23 08:04N 45°01' W 086°47'1615.3
2014-Nov-23 07:00N 45°12' W 086°30'2610.5 160 / 101009.8 5.4 5.5
2014-Nov-23 04:33N 45°35' W 086°15'1211.9
2014-Nov-23 03:33N 45°42' W 086°01'1211.6
2014-Nov-23 02:33N 45°48' W 085°47'1211.5
2014-Nov-23 01:33N 45°54' W 085°32'1211.8
2014-Nov-23 00:33N 45°53' W 085°16'1211.8
2014-Nov-22 23:33N 45°51' W 084°59'1211.8
2014-Nov-22 22:33N 45°49' W 084°42'4 3.9
2014-Nov-22 21:33N 45°45' W 084°39'0 0.1
2014-Nov-22 20:33N 45°45' W 084°39'0 0.0
2014-Nov-22 19:33N 45°45' W 084°39'0 0.0
2014-Nov-22 18:33N 45°45' W 084°39'0 0.0
2014-Nov-22 17:33N 45°45' W 084°39'0 0.0
2014-Nov-22 16:33N 45°45' W 084°39'3 3.3
2014-Nov-22 15:33N 45°48' W 084°41'2 2.1
2014-Nov-22 14:33N 45°47' W 084°39'1 1.2
2014-Nov-22 13:33N 45°46' W 084°39'0 0.0
2014-Nov-22 12:33N 45°46' W 084°39'0 0.0
2014-Nov-22 11:33N 45°46' W 084°39'0 0.0
2014-Nov-22 10:33N 45°46' W 084°39'0 0.0
2014-Nov-22 09:33N 45°46' W 084°39'0 0.0
2014-Nov-22 08:33N 45°46' W 084°39'0 0.0
2014-Nov-22 07:33N 45°46' W 084°39'0 0.0
2014-Nov-22 06:33N 45°46' W 084°39'7 6.6
2014-Nov-22 05:33N 45°49' W 084°47'1211.8
2014-Nov-22 04:33N 45°51' W 085°04'1111.2
2014-Nov-22 03:33N 45°53' W 085°20'9 9.5
2014-Nov-22 02:33N 45°54' W 085°33'5 5.3
2014-Nov-22 01:33N 45°53' W 085°26'9 8.9
2014-Nov-22 00:33N 45°52' W 085°13'8 7.8
2014-Nov-21 23:33N 45°51' W 085°02'7 7.0
2014-Nov-21 22:33N 45°50' W 084°52'1111.5
2014-Nov-21 21:33N 45°46' W 084°37'1212.0
2014-Nov-21 20:33N 45°41' W 084°21'1111.5
2014-Nov-21 19:33N 45°38' W 084°05'1425.4
2014-Nov-21 19:00N 45°30' W 083°48'101 8.5 230 / 221027.4 -5.5
2014-Nov-21 07:00N 44°00' W 082°42'   280 / 321022.010.8 -5.5 4.9
2014-Nov-15 11:00N 44°06' W 082°30'4511.3 240 / 231024.310.8 0.5
2014-Nov-15 07:00N 44°48' W 082°54'311 9.7 250 / 141025.710.8 -0.0 7.7
2014-Nov-13 23:00N 47°30' W 089°18'   350 / 181022.610.8 -8.8
Track history (hours):
 
Tides and Currents Weather Stations Pressure Air Temp Water Temp Dewpoint Dewpoint Depression Visibility Wind Speed Wind Dir Waves Ship Positions

H. Lee White

Owner: AMERICAN STEAMSHIP COMPANY, WILLIAMSVILLE, NY. More information available from US FCC via Universal Licensing System and Coast Guard Vessel Documentation Center.

Last reported at 2014-Nov-23 08:04 UTC. Time now 2014-Nov-23 11:11 UTC.
Position N 45°01' W 086°47'.

Length 214 m; draft 6.4 m.

Type: Cargo ship. MMSI: 366938770.

Date/timePositionNaut miles runAvg speedWind from/ knotsBaromVisibWave heightAir tempDewpointWater temp
2014-Nov-23 08:04N 45°01' W 086°47'1615.3
2014-Nov-23 07:00N 45°12' W 086°30'2610.5 160 / 101009.8 5.4 5.5
2014-Nov-23 04:33N 45°35' W 086°15'1211.9
2014-Nov-23 03:33N 45°42' W 086°01'1211.6
2014-Nov-23 02:33N 45°48' W 085°47'1211.5
2014-Nov-23 01:33N 45°54' W 085°32'1211.8
2014-Nov-23 00:33N 45°53' W 085°16'1211.8
2014-Nov-22 23:33N 45°51' W 084°59'1211.8
2014-Nov-22 22:33N 45°49' W 084°42'4 3.9
2014-Nov-22 21:33N 45°45' W 084°39'0 0.1
2014-Nov-22 20:33N 45°45' W 084°39'0 0.0
2014-Nov-22 19:33N 45°45' W 084°39'0 0.0
2014-Nov-22 18:33N 45°45' W 084°39'0 0.0
2014-Nov-22 17:33N 45°45' W 084°39'0 0.0
2014-Nov-22 16:33N 45°45' W 084°39'3 3.3
2014-Nov-22 15:33N 45°48' W 084°41'2 2.1
2014-Nov-22 14:33N 45°47' W 084°39'1 1.2
2014-Nov-22 13:33N 45°46' W 084°39'0 0.0
2014-Nov-22 12:33N 45°46' W 084°39'0 0.0
2014-Nov-22 11:33N 45°46' W 084°39'0 0.0
2014-Nov-22 10:33N 45°46' W 084°39'0 0.0
2014-Nov-22 09:33N 45°46' W 084°39'0 0.0
2014-Nov-22 08:33N 45°46' W 084°39'0 0.0
2014-Nov-22 07:33N 45°46' W 084°39'0 0.0
2014-Nov-22 06:33N 45°46' W 084°39'7 6.6
2014-Nov-22 05:33N 45°49' W 084°47'1211.8
2014-Nov-22 04:33N 45°51' W 085°04'1111.2
2014-Nov-22 03:33N 45°53' W 085°20'9 9.5
2014-Nov-22 02:33N 45°54' W 085°33'5 5.3
2014-Nov-22 01:33N 45°53' W 085°26'9 8.9
2014-Nov-22 00:33N 45°52' W 085°13'8 7.8
2014-Nov-21 23:33N 45°51' W 085°02'7 7.0
2014-Nov-21 22:33N 45°50' W 084°52'1111.5
2014-Nov-21 21:33N 45°46' W 084°37'1212.0
2014-Nov-21 20:33N 45°41' W 084°21'1111.5
2014-Nov-21 19:33N 45°38' W 084°05'1425.4
2014-Nov-21 19:00N 45°30' W 083°48'101 8.5 230 / 221027.4 -5.5
2014-Nov-21 07:00N 44°00' W 082°42'   280 / 321022.010.8 -5.5 4.9
2014-Nov-15 11:00N 44°06' W 082°30'4511.3 240 / 231024.310.8 0.5
2014-Nov-15 07:00N 44°48' W 082°54'311 9.7 250 / 141025.710.8 -0.0 7.7
2014-Nov-13 23:00N 47°30' W 089°18'   350 / 181022.610.8 -8.8

Dump ship's entire track history